createdAt,value
2018-10-03T00:02:10.995Z,4.20
2018-10-03T00:04:39.349Z,4.15
2018-10-03T00:07:07.729Z,4.87
2018-10-03T00:09:36.040Z,5.95
2018-10-03T00:12:04.329Z,5.45
2018-10-03T00:14:32.687Z,5.55
2018-10-03T00:17:01.040Z,5.42
2018-10-03T00:19:29.366Z,5.20
2018-10-03T00:21:57.677Z,4.95
2018-10-03T00:24:26.002Z,5.92
2018-10-03T00:26:54.308Z,4.83
2018-10-03T00:29:22.649Z,5.08
2018-10-03T00:31:51.032Z,5.30
2018-10-03T00:34:19.416Z,4.65
2018-10-03T00:36:47.810Z,5.00
2018-10-03T00:39:16.174Z,5.05
2018-10-03T00:41:44.503Z,4.87
2018-10-03T00:44:12.895Z,4.90
2018-10-03T00:46:41.176Z,4.90
2018-10-03T00:49:09.896Z,4.90
2018-10-03T00:51:38.619Z,5.60
2018-10-03T00:54:07.026Z,5.92
2018-10-03T00:56:35.496Z,5.08
2018-10-03T00:59:03.844Z,4.53
2018-10-03T01:01:32.143Z,5.50
2018-10-03T01:04:00.474Z,4.97
2018-10-03T01:06:28.800Z,6.00
2018-10-03T01:08:57.160Z,6.58
2018-10-03T01:11:25.504Z,5.83
2018-10-03T01:13:53.873Z,6.72
2018-10-03T01:16:22.193Z,6.10
2018-10-03T01:18:50.547Z,6.03
2018-10-03T01:21:18.894Z,6.00
2018-10-03T01:23:47.238Z,6.50
2018-10-03T01:26:15.542Z,6.10
2018-10-03T01:28:43.833Z,5.87
2018-10-03T01:31:12.146Z,5.70
2018-10-03T01:33:40.469Z,5.67
2018-10-03T01:36:08.836Z,5.55
2018-10-03T01:38:37.147Z,5.75
2018-10-03T01:41:05.469Z,4.50
2018-10-03T01:43:33.774Z,4.83
2018-10-03T01:46:02.085Z,5.70
2018-10-03T01:48:30.396Z,5.37
2018-10-03T01:50:58.785Z,6.15
2018-10-03T01:53:27.251Z,6.30
2018-10-03T01:55:55.591Z,6.08
2018-10-03T01:58:23.907Z,5.80
2018-10-03T02:00:52.253Z,6.50
2018-10-03T02:03:20.612Z,6.47
2018-10-03T02:05:48.979Z,4.92
2018-10-03T02:08:17.270Z,4.65
2018-10-03T02:10:45.585Z,5.25
2018-10-03T02:13:13.915Z,5.00
2018-10-03T02:15:42.249Z,5.30
2018-10-03T02:18:10.620Z,5.10
2018-10-03T02:20:38.971Z,5.00
2018-10-03T02:23:07.275Z,4.80
2018-10-03T02:25:35.598Z,4.92
2018-10-03T02:28:03.940Z,5.00
2018-10-03T02:30:32.438Z,4.90
2018-10-03T02:33:00.756Z,5.00
2018-10-03T02:35:29.067Z,4.70
2018-10-03T02:37:57.399Z,4.85
2018-10-03T02:40:25.785Z,4.35
2018-10-03T02:42:54.145Z,5.60
2018-10-03T02:45:22.461Z,5.17
2018-10-03T02:47:52.223Z,5.23
2018-10-03T02:50:20.571Z,5.40
2018-10-03T02:52:48.900Z,5.45
2018-10-03T02:55:17.255Z,5.87
2018-10-03T02:57:45.802Z,6.30
2018-10-03T03:00:14.220Z,6.22
2018-10-03T03:02:42.532Z,5.40
2018-10-03T03:05:10.872Z,5.83
2018-10-03T03:07:39.249Z,6.25
2018-10-03T03:10:07.567Z,6.37
2018-10-03T03:12:35.871Z,6.42
2018-10-03T03:15:04.228Z,6.72
2018-10-03T03:17:32.577Z,6.97
2018-10-03T03:20:00.964Z,7.00
2018-10-03T03:22:29.268Z,6.58
2018-10-03T03:24:57.695Z,6.85
2018-10-03T03:27:25.979Z,6.87
2018-10-03T03:29:54.320Z,8.35
2018-10-03T03:32:22.648Z,7.33
2018-10-03T03:34:50.966Z,7.78
2018-10-03T03:37:19.301Z,7.87
2018-10-03T03:39:47.679Z,8.60
2018-10-03T03:42:16.014Z,8.33
2018-10-03T03:44:44.316Z,7.80
2018-10-03T03:47:12.633Z,7.80
2018-10-03T03:49:40.932Z,8.50
2018-10-03T03:52:09.280Z,9.28
2018-10-03T03:54:37.707Z,8.95
2018-10-03T03:57:06.078Z,8.78
2018-10-03T03:59:34.388Z,9.50
2018-10-03T04:02:02.721Z,8.40
2018-10-03T04:04:31.036Z,9.10
2018-10-03T04:06:59.352Z,8.30
2018-10-03T04:09:27.697Z,8.30
2018-10-03T04:11:56.060Z,7.62
2018-10-03T04:14:24.386Z,7.90
2018-10-03T04:16:52.705Z,7.75
2018-10-03T04:19:21.044Z,9.10
2018-10-03T04:21:49.328Z,8.50
2018-10-03T04:24:17.656Z,8.68
2018-10-03T04:26:45.982Z,9.28
2018-10-03T04:29:14.402Z,9.28
2018-10-03T04:31:42.836Z,9.23
2018-10-03T04:34:11.122Z,10.10
2018-10-03T04:36:39.456Z,9.87
2018-10-03T04:39:08.316Z,9.55
2018-10-03T04:41:37.331Z,9.13
2018-10-03T04:44:05.651Z,10.82
2018-10-03T04:46:34.132Z,9.33
2018-10-03T04:49:02.540Z,10.43
2018-10-03T04:51:30.793Z,9.38
2018-10-03T04:53:59.096Z,9.03
2018-10-03T04:56:27.451Z,8.80
2018-10-03T04:58:55.792Z,8.80
2018-10-03T05:01:24.077Z,7.60
2018-10-03T05:03:52.452Z,8.78
2018-10-03T05:06:20.819Z,8.13
2018-10-03T05:08:49.178Z,8.03
2018-10-03T05:11:17.587Z,7.80
2018-10-03T05:13:45.860Z,8.05
2018-10-03T05:16:14.171Z,8.87
2018-10-03T05:18:42.531Z,8.08
2018-10-03T05:21:10.895Z,8.23
2018-10-03T05:23:39.388Z,8.63
2018-10-03T05:26:07.708Z,7.80
2018-10-03T05:28:36.040Z,7.50
2018-10-03T05:31:04.372Z,8.20
2018-10-03T05:33:33.468Z,8.00
2018-10-03T05:36:01.862Z,7.10
2018-10-03T05:38:30.171Z,7.58
2018-10-03T05:40:58.512Z,7.33
2018-10-03T05:43:26.801Z,6.67
2018-10-03T05:45:55.151Z,6.75
2018-10-03T05:48:23.504Z,6.55
2018-10-03T05:50:51.799Z,6.80
2018-10-03T05:53:20.173Z,6.53
2018-10-03T05:55:48.585Z,6.62
2018-10-03T05:58:16.905Z,7.28
2018-10-03T06:00:45.213Z,5.72
2018-10-03T06:03:13.553Z,7.13
2018-10-03T06:05:41.840Z,6.50
2018-10-03T06:08:10.208Z,6.53
2018-10-03T06:10:38.528Z,6.50
2018-10-03T06:13:07.193Z,6.10
2018-10-03T06:15:35.517Z,5.73
2018-10-03T06:18:03.855Z,5.47
2018-10-03T06:20:32.192Z,5.45
2018-10-03T06:23:00.603Z,6.30
2018-10-03T06:25:28.906Z,5.83
2018-10-03T06:27:57.337Z,5.72
2018-10-03T06:30:25.643Z,5.67
2018-10-03T06:32:53.961Z,5.28
2018-10-03T06:35:22.269Z,5.83
2018-10-03T06:37:50.579Z,5.08
2018-10-03T06:40:18.916Z,4.80
2018-10-03T06:42:47.244Z,5.15
2018-10-03T06:45:15.600Z,5.20
2018-10-03T06:47:43.927Z,5.50
2018-10-03T06:50:12.271Z,4.87
2018-10-03T06:52:40.590Z,4.70
2018-10-03T06:55:09.215Z,5.15
2018-10-03T06:57:37.576Z,4.60
2018-10-03T07:00:05.965Z,5.37
2018-10-03T07:02:34.293Z,4.30
2018-10-03T07:05:02.611Z,5.10
2018-10-03T07:07:30.915Z,5.20
2018-10-03T07:09:59.255Z,4.70
2018-10-03T07:12:27.580Z,5.00
2018-10-03T07:14:55.948Z,4.37
2018-10-03T07:17:24.335Z,4.23
2018-10-03T07:19:52.652Z,4.60
2018-10-03T07:22:20.969Z,4.90
2018-10-03T07:24:49.314Z,4.80
2018-10-03T07:27:24.468Z,4.58
2018-10-03T07:29:52.871Z,3.98
2018-10-03T07:32:21.176Z,4.33
2018-10-03T07:34:49.530Z,4.30
2018-10-03T07:37:17.838Z,4.30
2018-10-03T07:39:46.196Z,4.10
2018-10-03T07:42:14.528Z,5.12
2018-10-03T07:44:42.829Z,4.75
2018-10-03T07:47:11.221Z,4.30
2018-10-03T07:49:39.551Z,4.20
2018-10-03T07:52:08.044Z,4.45
2018-10-03T07:54:36.368Z,4.53
2018-10-03T07:57:04.667Z,5.20
2018-10-03T07:59:32.959Z,4.30
2018-10-03T08:02:01.348Z,4.00
2018-10-03T08:04:29.695Z,5.80
2018-10-03T08:06:58.067Z,4.53
2018-10-03T08:09:26.404Z,3.65
2018-10-03T08:11:54.731Z,3.80
2018-10-03T08:14:23.071Z,3.57
2018-10-03T08:16:51.419Z,4.40
2018-10-03T08:19:19.753Z,4.05
2018-10-03T08:21:48.392Z,3.85
2018-10-03T08:24:16.737Z,4.10
2018-10-03T08:26:45.064Z,4.08
2018-10-03T08:29:13.399Z,4.17
2018-10-03T08:31:41.743Z,5.63
2018-10-03T08:34:10.081Z,6.50
2018-10-03T08:36:38.605Z,4.80
2018-10-03T08:39:09.659Z,4.80
2018-10-03T08:41:38.087Z,4.85
2018-10-03T08:44:06.472Z,4.35
2018-10-03T08:46:34.818Z,4.60
2018-10-03T08:49:03.161Z,4.22
2018-10-03T08:51:31.529Z,4.40
2018-10-03T08:53:59.831Z,3.20
2018-10-03T08:56:28.160Z,4.03
2018-10-03T08:58:56.432Z,3.75
2018-10-03T09:01:24.752Z,3.30
2018-10-03T09:03:53.052Z,3.50
2018-10-03T09:06:21.368Z,3.98
2018-10-03T09:08:49.685Z,3.60
2018-10-03T09:11:18.036Z,3.60
2018-10-03T09:13:46.344Z,3.50
2018-10-03T09:16:14.712Z,3.50
2018-10-03T09:18:43.038Z,3.70
2018-10-03T09:21:11.345Z,3.73
2018-10-03T09:23:39.681Z,2.97
2018-10-03T09:26:07.988Z,4.10
2018-10-03T09:28:36.318Z,3.52
2018-10-03T09:31:04.659Z,2.83
2018-10-03T09:33:32.997Z,3.72
2018-10-03T09:36:01.348Z,3.90
2018-10-03T09:38:29.709Z,3.50
2018-10-03T09:40:58.016Z,3.22
2018-10-03T09:43:26.390Z,3.80
2018-10-03T09:45:54.725Z,3.80
2018-10-03T09:48:23.007Z,3.37
2018-10-03T09:50:51.314Z,3.30
2018-10-03T09:53:19.592Z,4.20
2018-10-03T09:55:47.956Z,3.60
2018-10-03T09:58:16.236Z,3.75
2018-10-03T10:00:49.892Z,4.28
2018-10-03T10:03:18.203Z,3.10
2018-10-03T10:05:46.500Z,3.40
2018-10-03T10:08:14.844Z,3.40
2018-10-03T10:10:43.169Z,3.15
2018-10-03T10:13:11.515Z,3.40
2018-10-03T10:15:39.835Z,3.70
2018-10-03T10:18:08.160Z,3.50
2018-10-03T10:20:36.536Z,4.00
2018-10-03T10:23:04.846Z,3.33
2018-10-03T10:25:33.156Z,3.30
2018-10-03T10:28:01.484Z,3.80
2018-10-03T10:30:29.791Z,3.58
2018-10-03T10:32:58.253Z,3.62
2018-10-03T10:35:26.683Z,3.27
2018-10-03T10:37:55.033Z,3.40
2018-10-03T10:40:23.418Z,3.87
2018-10-03T10:42:51.720Z,4.08
2018-10-03T10:45:20.073Z,3.95
2018-10-03T10:47:48.460Z,3.50
2018-10-03T10:50:16.826Z,3.35
2018-10-03T10:52:45.145Z,7.25
2018-10-03T10:55:13.472Z,5.53
2018-10-03T10:57:42.008Z,5.05
2018-10-03T11:00:10.330Z,5.40
2018-10-03T11:02:38.661Z,5.40
2018-10-03T11:05:07.044Z,4.90
2018-10-03T11:07:35.523Z,5.00
2018-10-03T11:10:03.881Z,4.50
2018-10-03T11:12:32.217Z,3.30
2018-10-03T11:15:00.553Z,3.08
2018-10-03T11:17:28.845Z,3.47
2018-10-03T11:19:57.208Z,3.52
2018-10-03T11:22:25.534Z,2.90
2018-10-03T11:24:54.104Z,3.10
2018-10-03T11:27:22.260Z,3.10
2018-10-03T11:29:50.604Z,3.20
2018-10-03T11:32:18.924Z,3.00
2018-10-03T11:34:47.259Z,3.33
2018-10-03T11:37:15.571Z,2.80
2018-10-03T11:39:43.904Z,2.80
2018-10-03T11:42:12.231Z,3.10
2018-10-03T11:44:40.672Z,2.67
2018-10-03T11:47:09.021Z,3.23
2018-10-03T11:49:37.449Z,3.40
2018-10-03T11:52:05.776Z,3.05
2018-10-03T11:54:34.109Z,3.25
2018-10-03T11:57:02.521Z,2.60
2018-10-03T11:59:30.872Z,3.12
2018-10-03T12:01:59.216Z,2.40
2018-10-03T12:04:27.592Z,2.95
2018-10-03T12:06:55.910Z,2.75
2018-10-03T12:09:24.301Z,3.10
2018-10-03T12:11:52.656Z,3.40
2018-10-03T12:14:20.971Z,3.20
2018-10-03T12:16:49.286Z,2.90
2018-10-03T12:19:17.812Z,2.80
2018-10-03T12:21:46.141Z,2.60
2018-10-03T12:24:14.500Z,2.70
2018-10-03T12:26:42.846Z,3.17
2018-10-03T12:29:11.195Z,3.00
2018-10-03T12:31:39.608Z,2.67
2018-10-03T12:34:08.179Z,3.08
2018-10-03T12:36:36.463Z,2.60
2018-10-03T12:39:06.843Z,2.23
2018-10-03T12:41:35.136Z,2.47
2018-10-03T12:44:03.464Z,3.22
2018-10-03T12:46:31.856Z,2.62
2018-10-03T12:49:00.186Z,2.65
2018-10-03T12:51:28.743Z,2.90
2018-10-03T12:53:57.072Z,2.77
2018-10-03T12:56:25.375Z,2.40
2018-10-03T12:58:53.692Z,2.80
2018-10-03T13:01:22.071Z,2.67
2018-10-03T13:03:50.349Z,2.77
2018-10-03T13:06:18.675Z,2.47
2018-10-03T13:08:47.017Z,2.22
2018-10-03T13:11:15.353Z,2.30
2018-10-03T13:13:43.711Z,3.00
2018-10-03T13:16:12.572Z,3.05
2018-10-03T13:18:41.145Z,2.47
2018-10-03T13:21:09.620Z,2.72
2018-10-03T13:23:38.004Z,2.50
2018-10-03T13:26:06.337Z,2.80
2018-10-03T13:28:34.699Z,2.70
2018-10-03T13:31:03.040Z,2.70
2018-10-03T13:33:31.647Z,3.00
2018-10-03T13:35:59.988Z,3.50
2018-10-03T13:38:28.304Z,2.70
2018-10-03T13:40:56.649Z,2.80
2018-10-03T13:43:24.960Z,2.60
2018-10-03T13:45:53.351Z,3.30
2018-10-03T13:48:21.703Z,3.17
2018-10-03T13:50:50.039Z,2.70
2018-10-03T13:53:18.380Z,2.45
2018-10-03T13:55:46.737Z,3.27
2018-10-03T13:58:15.082Z,2.70
2018-10-03T14:00:43.432Z,2.77
2018-10-03T14:03:11.759Z,2.33
2018-10-03T14:05:40.051Z,2.53
2018-10-03T14:08:08.364Z,3.27
2018-10-03T14:10:36.742Z,2.22
2018-10-03T14:13:05.060Z,2.30
2018-10-03T14:15:33.424Z,2.52
2018-10-03T14:24:07.990Z,3.27
2018-10-03T14:26:36.290Z,2.90
2018-10-03T14:29:04.535Z,2.00
2018-10-03T14:31:32.746Z,8.33
2018-10-03T14:34:00.990Z,5.37
2018-10-03T14:36:29.272Z,3.63
2018-10-03T14:38:57.538Z,3.03
2018-10-03T14:41:25.799Z,3.43
2018-10-03T14:43:54.039Z,2.83
2018-10-03T14:46:22.321Z,2.40
2018-10-03T14:48:50.550Z,3.10
2018-10-03T14:51:18.793Z,2.80
2018-10-03T14:53:47.093Z,3.37
2018-10-03T14:56:15.335Z,3.40
2018-10-03T14:58:43.649Z,2.33
2018-10-03T15:01:11.853Z,3.05
2018-10-03T15:03:40.106Z,2.85
2018-10-03T15:06:08.393Z,2.40
2018-10-03T15:08:36.758Z,5.28
2018-10-03T15:11:04.991Z,3.60
2018-10-03T15:13:33.305Z,4.75
2018-10-03T15:16:01.541Z,3.42
2018-10-03T15:18:29.818Z,3.22
2018-10-03T15:20:58.021Z,2.90
2018-10-03T15:23:26.265Z,2.70
2018-10-03T15:25:54.506Z,2.77
2018-10-03T15:28:22.773Z,2.20
2018-10-03T15:30:51.029Z,4.78
2018-10-03T15:33:19.267Z,3.10
2018-10-03T15:35:47.529Z,3.20
2018-10-03T15:38:15.834Z,3.37
2018-10-03T15:40:44.062Z,3.37
2018-10-03T15:43:12.309Z,2.83
2018-10-03T15:45:40.568Z,3.72
2018-10-03T15:48:09.129Z,3.47
2018-10-03T15:50:37.469Z,2.80
2018-10-03T15:53:05.746Z,3.20
2018-10-03T15:55:33.989Z,2.80
2018-10-03T15:58:02.224Z,4.17
2018-10-03T16:00:30.475Z,3.77
2018-10-03T16:02:58.699Z,2.93
2018-10-03T16:05:26.958Z,2.40
2018-10-03T16:07:55.213Z,2.53
2018-10-03T16:10:23.506Z,3.00
2018-10-03T16:12:52.021Z,3.17
2018-10-03T16:15:20.257Z,2.90
2018-10-03T16:17:48.581Z,2.27
2018-10-03T16:20:16.828Z,2.60
2018-10-03T16:22:45.085Z,2.80
2018-10-03T16:25:14.060Z,2.80
2018-10-03T16:27:42.302Z,2.65
2018-10-03T16:30:10.551Z,2.80
2018-10-03T16:32:38.794Z,2.42
2018-10-03T16:35:07.087Z,2.80
2018-10-03T16:37:35.318Z,3.10
2018-10-03T16:40:03.567Z,2.80
2018-10-03T16:42:31.807Z,2.50
2018-10-03T16:45:00.053Z,3.10
2018-10-03T16:47:28.280Z,2.93
2018-10-03T16:49:56.622Z,2.90
2018-10-03T16:52:24.865Z,3.20
2018-10-03T16:54:53.118Z,2.90
2018-10-03T16:57:21.374Z,3.20
2018-10-03T16:59:49.618Z,3.30
2018-10-03T17:02:17.857Z,3.47
2018-10-03T17:04:46.938Z,3.27
2018-10-03T17:07:15.180Z,3.37
2018-10-03T17:09:43.487Z,3.50
2018-10-03T17:12:11.739Z,3.13
2018-10-03T17:14:41.989Z,3.60
2018-10-03T17:17:13.147Z,3.50
2018-10-03T17:19:41.383Z,3.55
2018-10-03T17:22:09.717Z,3.40
2018-10-03T17:24:38.543Z,3.20
2018-10-03T17:27:06.854Z,3.80
2018-10-03T17:29:35.318Z,5.00
2018-10-03T17:32:03.621Z,4.23
2018-10-03T17:34:31.879Z,4.73
2018-10-03T17:37:00.095Z,5.30
2018-10-03T17:39:28.926Z,5.30
2018-10-03T17:41:57.349Z,5.37
2018-10-03T17:44:25.827Z,4.90
2018-10-03T17:46:55.362Z,5.10
2018-10-03T17:49:23.588Z,4.75
2018-10-03T17:51:51.813Z,5.08
2018-10-03T17:54:20.153Z,4.70
2018-10-03T17:56:48.402Z,4.95
2018-10-03T17:59:17.224Z,5.40
2018-10-03T18:01:50.473Z,5.95
2018-10-03T18:04:18.709Z,6.50
2018-10-03T18:06:46.937Z,6.55
2018-10-03T18:09:15.246Z,7.30
2018-10-03T18:11:43.385Z,6.67
2018-10-03T18:14:11.634Z,7.17
2018-10-03T18:16:39.858Z,6.92
2018-10-03T18:19:08.172Z,6.50
2018-10-03T18:21:36.837Z,6.10
2018-10-03T18:24:05.159Z,6.30
2018-10-03T18:26:33.386Z,7.10
2018-10-03T18:29:01.646Z,7.30
2018-10-03T18:31:30.012Z,6.45
2018-10-03T18:33:58.361Z,6.15
2018-10-03T18:36:26.774Z,6.40
2018-10-03T18:38:55.100Z,6.50
2018-10-03T18:41:26.551Z,6.87
2018-10-03T18:43:55.171Z,6.92
2018-10-03T18:46:23.557Z,7.10
2018-10-03T18:48:51.846Z,7.60
2018-10-03T18:51:20.187Z,7.55
2018-10-03T18:53:48.471Z,8.30
2018-10-03T18:56:16.790Z,10.03
2018-10-03T18:58:45.065Z,10.95
2018-10-03T19:01:13.324Z,12.70
2018-10-03T19:03:41.689Z,14.10
2018-10-03T19:06:10.022Z,12.50
2018-10-03T19:08:38.336Z,11.80
2018-10-03T19:11:06.734Z,11.20
2018-10-03T19:13:35.044Z,10.60
2018-10-03T19:16:03.289Z,12.20
2018-10-03T19:18:31.559Z,11.28
2018-10-03T19:20:59.824Z,10.58
2018-10-03T19:23:28.078Z,10.30
2018-10-03T19:25:56.378Z,8.78
2018-10-03T19:28:24.641Z,9.88
2018-10-03T19:30:52.902Z,9.95
2018-10-03T19:33:21.203Z,9.65
2018-10-03T19:35:49.560Z,8.73
2018-10-03T19:38:17.748Z,8.78
2018-10-03T19:40:46.019Z,8.87
2018-10-03T19:43:14.261Z,9.57
2018-10-03T19:45:42.579Z,8.08
2018-10-03T19:48:10.972Z,8.65
2018-10-03T19:50:39.126Z,8.80
2018-10-03T19:53:07.401Z,8.45
2018-10-03T19:55:35.669Z,9.40
2018-10-03T19:58:03.922Z,9.00
2018-10-03T20:00:32.177Z,7.22
2018-10-03T20:03:00.418Z,7.53
2018-10-03T20:05:28.696Z,7.97
2018-10-03T20:07:56.960Z,6.55
2018-10-03T20:10:25.293Z,7.00
2018-10-03T20:12:53.536Z,7.28
2018-10-03T20:15:21.813Z,7.00
2018-10-03T20:17:50.042Z,7.70
2018-10-03T20:20:18.286Z,7.60
2018-10-03T20:22:46.522Z,7.12
2018-10-03T20:25:14.833Z,7.30
2018-10-03T20:27:43.080Z,6.85
2018-10-03T20:30:11.327Z,6.70
2018-10-03T20:32:39.574Z,6.45
2018-10-03T20:35:07.837Z,6.15
2018-10-03T20:37:36.105Z,6.30
2018-10-03T20:40:04.345Z,6.70
2018-10-03T20:42:32.615Z,6.80
2018-10-03T20:45:00.944Z,6.77
2018-10-03T20:47:29.181Z,6.70
2018-10-03T20:49:57.646Z,7.17
2018-10-03T20:52:25.892Z,7.67
2018-10-03T20:54:54.165Z,6.20
2018-10-03T20:57:22.451Z,7.80
2018-10-03T20:59:50.697Z,7.20
2018-10-03T21:02:18.938Z,6.85
2018-10-03T21:04:47.193Z,5.87
2018-10-03T21:07:15.445Z,5.60
2018-10-03T21:09:43.689Z,6.62
2018-10-03T21:12:11.908Z,6.08
2018-10-03T21:14:40.178Z,6.10
2018-10-03T21:17:08.455Z,5.78
2018-10-03T21:19:36.717Z,6.62
2018-10-03T21:22:04.964Z,5.97
2018-10-03T21:24:33.238Z,5.67
2018-10-03T21:27:01.470Z,6.30
2018-10-03T21:29:29.741Z,6.90
2018-10-03T21:31:57.990Z,6.10
2018-10-03T21:34:26.320Z,6.93
2018-10-03T21:36:54.617Z,5.87
2018-10-03T21:39:22.888Z,5.60
2018-10-03T21:41:51.213Z,6.67
2018-10-03T21:44:19.505Z,6.40
2018-10-03T21:46:47.785Z,5.80
2018-10-03T21:49:16.010Z,6.60
2018-10-03T21:51:44.234Z,6.20
2018-10-03T21:54:12.470Z,5.80
2018-10-03T21:56:40.762Z,6.50
2018-10-03T21:59:09.085Z,6.50
2018-10-03T22:01:37.345Z,6.03
2018-10-03T22:04:05.590Z,5.67
2018-10-03T22:06:33.802Z,5.72
2018-10-03T22:09:02.330Z,5.97
2018-10-03T22:11:30.593Z,6.60
2018-10-03T22:13:58.816Z,5.83
2018-10-03T22:16:27.073Z,6.20
2018-10-03T22:18:55.333Z,6.15
2018-10-03T22:21:23.581Z,6.72
2018-10-03T22:23:51.838Z,5.83
2018-10-03T22:26:20.065Z,6.53
2018-10-03T22:28:48.318Z,5.72
2018-10-03T22:31:16.553Z,5.97
2018-10-03T22:33:44.757Z,6.10
2018-10-03T22:36:13.026Z,6.37
2018-10-03T22:38:41.265Z,6.20
2018-10-03T22:41:09.474Z,6.40
2018-10-03T22:43:37.809Z,6.50
2018-10-03T22:46:06.534Z,7.30
2018-10-03T22:48:34.765Z,6.40
2018-10-03T22:51:03.104Z,6.40
2018-10-03T22:53:31.327Z,6.33
2018-10-03T22:55:59.566Z,6.40
2018-10-03T22:58:27.774Z,5.85
2018-10-03T23:00:55.992Z,6.10
2018-10-03T23:03:24.302Z,6.60
2018-10-03T23:05:52.558Z,6.40
2018-10-03T23:08:20.873Z,6.80
2018-10-03T23:10:49.127Z,5.95
2018-10-03T23:13:17.389Z,6.20
2018-10-03T23:15:45.702Z,6.75
2018-10-03T23:18:13.929Z,5.87
2018-10-03T23:20:42.177Z,6.40
2018-10-03T23:23:10.450Z,6.10
2018-10-03T23:25:38.753Z,5.80
2018-10-03T23:28:07.005Z,5.92
2018-10-03T23:30:35.273Z,5.95
2018-10-03T23:33:03.497Z,6.10
2018-10-03T23:35:31.703Z,5.90
2018-10-03T23:37:59.929Z,5.70
2018-10-03T23:40:28.176Z,6.00
2018-10-03T23:42:56.421Z,5.10
2018-10-03T23:45:24.649Z,5.50
2018-10-03T23:47:52.880Z,5.25
2018-10-03T23:50:21.110Z,5.45
2018-10-03T23:52:49.388Z,5.00
2018-10-03T23:55:17.626Z,5.35
2018-10-03T23:57:45.857Z,4.70
